Time;durP1;ratioP1;P1;durP2;ratioP2;P2;SDS_P1;SDS_P2;PMS_P1;PMS_P2;Temp;Humidity;BMP_temperature;BMP_pressure;BME280_temperature;BME280_humidity;BME280_pressure;Samples;Min_cycle;Max_cycle;Signal;HPM_P1;HPM_P2
2022/01/22 00:01:43;;;;;;;12.23;5.47;;;4.40;99.90;;;;;;6190670;23;20219;-65
2022/01/22 00:04:09;;;;;;;16.58;6.15;;;4.40;99.90;;;;;;6190747;23;20216;-65
2022/01/22 00:06:35;;;;;;;14.90;5.82;;;4.40;99.90;;;;;;6217111;23;20484;-65
2022/01/22 00:09:00;;;;;;;13.10;5.75;;;4.40;99.90;;;;;;6217270;23;20145;-65
2022/01/22 00:11:33;;;;;;;11.65;5.85;;;4.30;99.90;;;;;;6217174;23;20149;-65
2022/01/22 00:17:01;;;;;;;13.48;6.03;;;4.30;99.90;;;;;;6095612;23;20172;-65
2022/01/22 00:19:27;;;;;;;11.93;5.85;;;4.30;99.90;;;;;;6095749;23;20163;-65
2022/01/22 00:21:54;;;;;;;13.32;5.75;;;4.30;99.90;;;;;;6096269;23;20476;-65
2022/01/22 00:24:19;;;;;;;16.80;6.25;;;4.30;99.90;;;;;;6096518;23;20186;-64
2022/01/22 00:26:45;;;;;;;12.18;6.47;;;4.20;99.90;;;;;;6096396;23;20147;-66
2022/01/22 00:29:11;;;;;;;14.10;6.47;;;4.20;99.90;;;;;;6096545;23;20619;-66
2022/01/22 00:31:39;;;;;;;11.77;6.50;;;4.20;99.90;;;;;;6096079;23;20159;-65
2022/01/22 00:34:06;;;;;;;11.38;6.40;;;4.20;99.90;;;;;;6096504;23;20222;-65
2022/01/22 00:36:32;;;;;;;17.23;6.68;;;4.20;99.90;;;;;;6095934;23;20244;-65
2022/01/22 00:38:57;;;;;;;15.80;6.80;;;4.20;99.90;;;;;;6096260;23;20144;-66
2022/01/22 00:41:23;;;;;;;12.02;6.82;;;4.20;99.90;;;;;;6096267;23;20159;-66
2022/01/22 00:43:48;;;;;;;15.68;6.85;;;4.20;99.90;;;;;;6096309;23;20161;-66
2022/01/22 00:46:14;;;;;;;17.98;7.18;;;4.20;99.90;;;;;;6096331;23;20171;-65
2022/01/22 00:48:40;;;;;;;15.35;7.50;;;4.20;99.90;;;;;;6095813;23;20151;-65
2022/01/22 00:51:05;;;;;;;15.57;7.18;;;4.10;99.90;;;;;;6163285;23;20141;-65
2022/01/22 00:53:32;;;;;;;14.70;7.15;;;4.10;99.90;;;;;;6216610;23;20144;-65
2022/01/22 00:55:58;;;;;;;16.35;6.35;;;4.00;99.90;;;;;;6216727;23;20141;-65
2022/01/22 00:58:23;;;;;;;13.90;7.03;;;4.00;99.90;;;;;;6216822;23;20168;-64
2022/01/22 01:00:49;;;;;;;15.75;6.85;;;4.00;99.90;;;;;;6216448;23;20152;-64
2022/01/22 01:03:15;;;;;;;13.48;6.68;;;3.90;99.90;;;;;;6216393;23;20137;-63
2022/01/22 01:05:40;;;;;;;16.23;6.38;;;3.90;99.90;;;;;;6217041;23;20149;-63
2022/01/22 01:08:05;;;;;;;14.32;6.97;;;3.90;99.90;;;;;;6216777;23;20175;-63
2022/01/22 01:10:31;;;;;;;11.38;6.10;;;3.80;99.90;;;;;;6216906;23;20152;-64
2022/01/22 01:12:57;;;;;;;13.32;6.20;;;3.80;99.90;;;;;;6216610;23;20161;-64
2022/01/22 01:32:32;;;;;;;15.38;4.45;;;3.60;99.90;;;;;;6216407;23;20131;-64
2022/01/22 01:34:45;;;;;;;9.93;4.25;;;3.50;99.90;;;;;;6212988;23;20145;-65
2022/01/22 01:37:16;;;;;;;11.52;4.55;;;3.50;99.90;;;;;;6216384;23;20184;-64
2022/01/22 01:39:43;;;;;;;10.63;4.65;;;3.50;99.90;;;;;;6216643;23;20133;-64
2022/01/22 01:42:15;;;;;;;13.00;4.90;;;3.40;99.90;;;;;;6190897;23;20145;-64
2022/01/22 01:44:41;;;;;;;10.13;4.55;;;3.40;99.90;;;;;;6216578;23;20129;-64
2022/01/22 01:47:08;;;;;;;12.20;4.25;;;3.40;99.90;;;;;;6216448;23;20171;-64
2022/01/22 01:49:35;;;;;;;7.28;4.20;;;3.40;99.90;;;;;;6216462;23;20157;-64
2022/01/22 01:52:03;;;;;;;11.52;4.13;;;3.40;99.90;;;;;;6216338;23;20279;-63
2022/01/22 01:54:36;;;;;;;10.10;4.53;;;3.30;99.90;;;;;;6216187;23;20145;-64
2022/01/22 01:59:49;;;;;;;8.32;4.35;;;3.30;99.90;;;;;;6216177;23;20211;-62
2022/01/22 02:02:14;;;;;;;10.95;4.03;;;3.30;99.90;;;;;;6216364;23;20151;-62
2022/01/22 02:04:41;;;;;;;10.07;4.10;;;3.20;99.90;;;;;;6216257;23;20428;-62
2022/01/22 02:07:07;;;;;;;8.45;4.03;;;3.20;99.90;;;;;;6216408;23;20176;-61
2022/01/22 02:09:37;;;;;;;15.60;4.43;;;3.10;99.90;;;;;;6216379;23;20141;-62
2022/01/22 02:12:10;;;;;;;13.43;4.97;;;3.10;99.90;;;;;;6216592;23;20184;-62
2022/01/22 02:25:18;;;;;;;11.48;4.20;;;3.00;99.90;;;;;;6216396;23;20136;-61
2022/01/22 02:27:43;;;;;;;10.25;4.25;;;3.00;99.90;;;;;;6216506;23;20141;-61
2022/01/22 02:30:09;;;;;;;7.68;3.92;;;3.00;99.90;;;;;;6216385;23;20163;-60
2022/01/22 02:35:30;;;;;;;12.25;3.92;;;3.00;99.90;;;;;;6216190;23;20191;-61
2022/01/22 02:38:04;;;;;;;8.73;4.53;;;3.00;99.90;;;;;;6218213;23;20161;-62
2022/01/22 02:40:36;;;;;;;10.52;3.75;;;2.90;99.90;;;;;;6217869;23;20144;-62
2022/01/22 02:43:01;;;;;;;10.40;3.85;;;2.90;99.90;;;;;;6218138;23;20152;-62
2022/01/22 02:45:27;;;;;;;11.23;4.07;;;2.90;99.90;;;;;;6217652;23;20145;-62
2022/01/22 02:47:53;;;;;;;13.50;3.35;;;2.80;99.90;;;;;;6217870;23;20213;-62
2022/01/22 02:50:20;;;;;;;10.18;3.20;;;2.80;99.90;;;;;;6217605;23;20145;-61
2022/01/22 02:52:46;;;;;;;10.20;3.25;;;2.80;99.90;;;;;;6217395;23;20141;-62
2022/01/22 02:55:13;;;;;;;6.82;3.60;;;2.80;99.90;;;;;;6217896;23;20163;-62
2022/01/22 02:57:41;;;;;;;11.38;3.40;;;2.70;99.90;;;;;;6217725;23;20223;-62
2022/01/22 03:00:11;;;;;;;8.30;3.03;;;2.70;99.90;;;;;;6217924;23;20145;-62
2022/01/22 03:02:37;;;;;;;9.85;3.60;;;2.70;99.90;;;;;;6217948;23;20446;-62
2022/01/22 03:05:03;;;;;;;12.30;3.45;;;2.70;99.90;;;;;;6217745;23;20168;-61
2022/01/22 03:07:28;;;;;;;10.32;3.20;;;2.60;99.90;;;;;;6219313;23;20141;-62
2022/01/22 03:10:00;;;;;;;13.32;3.50;;;2.60;99.90;;;;;;6218955;23;20223;-62
2022/01/22 03:20:43;;;;;;;8.15;2.97;;;2.50;99.90;;;;;;6203060;23;20179;-62
2022/01/22 03:28:51;;;;;;;6.78;2.97;;;2.40;99.90;;;;;;6207658;23;20584;-62
2022/01/22 03:31:16;;;;;;;6.53;2.45;;;2.40;99.90;;;;;;6227636;23;20125;-61
2022/01/22 03:33:42;;;;;;;12.02;2.50;;;2.40;99.90;;;;;;6223111;23;20140;-61
2022/01/22 03:36:07;;;;;;;8.40;2.70;;;2.30;99.90;;;;;;6223833;23;20145;-62
2022/01/22 03:38:33;;;;;;;7.78;2.90;;;2.30;99.90;;;;;;6223307;23;20175;-62
2022/01/22 03:40:58;;;;;;;10.25;2.60;;;2.30;99.90;;;;;;6222973;23;20141;-62
2022/01/22 03:43:24;;;;;;;9.57;2.83;;;2.30;99.90;;;;;;6224055;23;20154;-62
2022/01/22 03:45:49;;;;;;;9.13;2.60;;;2.30;99.90;;;;;;6240823;23;20201;-62
2022/01/22 03:48:15;;;;;;;10.45;3.30;;;2.30;99.90;;;;;;6239920;23;20160;-62
2022/01/22 03:50:40;;;;;;;7.93;2.45;;;2.30;99.90;;;;;;6241698;23;20209;-62
2022/01/22 03:53:06;;;;;;;9.57;2.70;;;2.20;99.90;;;;;;6241106;23;20144;-61
2022/01/22 03:58:16;;;;;;;11.02;2.88;;;2.20;99.90;;;;;;6217057;23;20175;-62
2022/01/22 04:00:42;;;;;;;9.68;2.38;;;2.20;99.90;;;;;;6217224;23;20141;-62
2022/01/22 04:03:29;;;;;;;5.00;1.77;;;2.20;99.90;;;;;;6217308;23;20172;-63
2022/01/22 04:07:11;;;;;;;6.30;2.28;;;2.20;99.90;;;;;;6217395;23;20220;-61
2022/01/22 04:08:41;;;;;;;5.78;1.90;;;2.20;99.90;;;;;;6195783;23;20281;-63
2022/01/22 04:11:11;;;;;;;7.38;2.17;;;2.20;99.90;;;;;;6217337;23;20179;-63
2022/01/22 04:13:36;;;;;;;6.32;2.22;;;2.20;99.90;;;;;;6191832;23;20141;-63
2022/01/22 04:16:02;;;;;;;6.13;2.25;;;2.10;99.90;;;;;;6217206;23;20159;-61
2022/01/22 04:27:07;;;;;;;7.22;2.05;;;2.00;99.90;;;;;;6217009;23;20494;-62
2022/01/22 04:29:28;;;;;;;8.27;1.92;;;2.00;99.90;;;;;;6216376;23;20617;-62
2022/01/22 04:31:54;;;;;;;6.60;1.83;;;2.00;99.90;;;;;;6216711;23;20176;-62
2022/01/22 04:34:20;;;;;;;13.20;2.85;;;2.00;99.90;;;;;;6216621;23;20534;-62
2022/01/22 04:36:45;;;;;;;11.68;2.38;;;2.00;99.90;;;;;;6216812;23;20526;-61
2022/01/22 04:39:11;;;;;;;9.93;2.42;;;2.00;99.90;;;;;;6216921;23;20149;-62
2022/01/22 04:41:37;;;;;;;6.80;2.00;;;2.00;99.90;;;;;;6216642;23;20151;-62
2022/01/22 04:44:05;;;;;;;11.05;1.88;;;2.00;99.90;;;;;;6216878;23;20507;-62
2022/01/22 04:47:15;;;;;;;10.05;1.98;;;2.00;99.90;;;;;;6191029;23;20155;-62
2022/01/22 04:57:19;;;;;;;12.80;1.80;;;1.90;99.90;;;;;;6216452;23;20195;-63
2022/01/22 04:59:45;;;;;;;7.82;1.80;;;1.90;99.90;;;;;;6190161;23;20137;-62
2022/01/22 05:02:11;;;;;;;9.80;2.13;;;1.90;99.90;;;;;;6216505;23;20182;-62
2022/01/22 05:04:36;;;;;;;4.22;1.60;;;1.90;99.90;;;;;;6216468;23;20149;-62
2022/01/22 05:07:02;;;;;;;3.55;1.35;;;1.90;99.90;;;;;;6216408;23;20149;-62
2022/01/22 05:09:28;;;;;;;3.50;1.38;;;1.90;99.90;;;;;;6190059;23;20160;-62
2022/01/22 05:11:53;;;;;;;6.38;1.70;;;1.80;99.90;;;;;;6216716;23;20149;-62
2022/01/22 05:14:19;;;;;;;4.75;1.50;;;1.80;99.90;;;;;;6216537;23;20156;-61
2022/01/22 05:16:44;;;;;;;5.93;1.60;;;1.80;99.90;;;;;;6216762;23;20470;-62
2022/01/22 05:19:17;;;;;;;9.40;1.70;;;1.80;99.90;;;;;;6216188;23;20252;-62
2022/01/22 05:21:44;;;;;;;8.05;1.40;;;1.80;99.90;;;;;;6191982;23;20364;-62
2022/01/22 05:24:15;;;;;;;5.05;1.75;;;1.80;99.90;;;;;;6216649;23;20168;-62
2022/01/22 05:27:14;;;;;;;4.75;1.30;;;1.90;99.90;;;;;;6216546;23;20522;-60
2022/01/22 05:37:27;;;;;;;6.35;1.88;;;1.90;99.90;;;;;;6216333;23;20251;-62
2022/01/22 05:39:53;;;;;;;4.88;1.30;;;1.90;99.90;;;;;;6216389;23;20148;-62
2022/01/22 05:42:18;;;;;;;3.78;1.38;;;1.90;99.90;;;;;;6216615;23;20145;-62
2022/01/22 05:44:44;;;;;;;3.97;1.55;;;2.00;99.90;;;;;;6216620;23;20168;-62
2022/01/22 05:47:09;;;;;;;6.53;1.70;;;2.00;99.90;;;;;;6216372;23;20152;-62
2022/01/22 05:49:40;;;;;;;7.97;1.48;;;2.00;99.90;;;;;;6216189;23;20140;-60
2022/01/22 05:52:08;;;;;;;5.72;1.55;;;2.00;99.90;;;;;;6216210;23;20566;-61
2022/01/22 05:54:56;;;;;;;9.00;1.58;;;2.00;99.90;;;;;;6216310;23;20616;-62
2022/01/22 06:00:07;;;;;;;3.67;1.38;;;2.00;99.90;;;;;;6216252;23;20209;-61
2022/01/22 06:02:32;;;;;;;3.30;1.20;;;2.10;99.90;;;;;;6216362;23;20145;-61
2022/01/22 06:04:58;;;;;;;4.93;1.50;;;2.10;99.90;;;;;;6216129;23;20573;-61
2022/01/22 06:07:23;;;;;;;5.70;1.40;;;2.10;99.90;;;;;;6216184;23;20553;-61
2022/01/22 06:10:04;;;;;;;3.72;1.52;;;2.10;99.90;;;;;;6216583;23;20157;-61
2022/01/22 06:13:18;;;;;;;8.18;1.42;;;2.10;99.90;;;;;;6218460;23;20133;-61
2022/01/22 06:15:15;;;;;;;3.35;1.23;;;2.10;99.90;;;;;;6206822;23;20207;-63
2022/01/22 06:17:41;;;;;;;4.15;1.10;;;2.10;99.90;;;;;;6218218;23;20169;-63
2022/01/22 06:20:07;;;;;;;2.80;1.10;;;2.10;99.90;;;;;;6217677;23;20164;-63
2022/01/22 06:22:33;;;;;;;3.05;1.00;;;2.10;99.90;;;;;;6217819;23;20149;-62
2022/01/22 06:24:59;;;;;;;1.77;0.75;;;2.10;99.90;;;;;;6217788;23;20624;-62
2022/01/22 06:27:24;;;;;;;3.55;0.80;;;2.10;99.90;;;;;;6217960;23;20220;-62
2022/01/22 06:29:49;;;;;;;3.20;0.85;;;2.10;99.90;;;;;;6191934;23;20149;-62
2022/01/22 06:32:15;;;;;;;5.10;1.10;;;2.10;99.90;;;;;;6218205;23;20149;-61
2022/01/22 06:34:40;;;;;;;2.97;1.00;;;2.10;99.90;;;;;;6217818;23;20493;-63
2022/01/22 06:37:06;;;;;;;2.30;0.98;;;2.10;99.90;;;;;;6217650;23;20611;-60
2022/01/22 06:39:41;;;;;;;4.28;1.33;;;2.10;99.90;;;;;;6217697;23;20155;-62
2022/01/22 06:42:07;;;;;;;3.75;1.10;;;2.10;99.90;;;;;;6218197;23;20195;-63
2022/01/22 06:44:34;;;;;;;6.00;1.40;;;2.10;99.90;;;;;;6217531;23;20226;-63
2022/01/22 06:47:00;;;;;;;4.82;1.52;;;2.10;99.90;;;;;;6218040;23;20145;-62
2022/01/22 06:49:26;;;;;;;4.60;1.40;;;2.10;99.90;;;;;;6217630;23;20584;-62
2022/01/22 06:51:54;;;;;;;3.42;1.27;;;2.10;99.90;;;;;;6217680;23;20164;-61
2022/01/22 06:54:21;;;;;;;3.33;1.45;;;2.10;99.90;;;;;;6217565;23;20421;-62
2022/01/22 06:56:46;;;;;;;3.13;1.40;;;2.10;99.90;;;;;;6217818;23;20260;-61
2022/01/22 06:59:13;;;;;;;5.30;1.58;;;2.10;99.90;;;;;;6217572;23;20488;-61
2022/01/22 07:01:39;;;;;;;9.25;1.85;;;2.10;99.90;;;;;;6217561;23;20458;-63
2022/01/22 07:04:05;;;;;;;6.53;1.55;;;2.10;99.90;;;;;;6217526;23;20224;-63
2022/01/22 07:06:31;;;;;;;4.00;1.30;;;2.00;99.90;;;;;;6217549;23;20183;-62
2022/01/22 07:08:56;;;;;;;2.35;1.27;;;2.00;99.90;;;;;;6217501;23;20144;-62
2022/01/22 07:11:22;;;;;;;5.20;1.40;;;1.90;99.90;;;;;;6217435;23;20149;-63
2022/01/22 07:13:47;;;;;;;7.85;1.20;;;1.90;99.90;;;;;;6191344;23;20526;-61
2022/01/22 07:16:13;;;;;;;4.28;1.20;;;1.90;99.90;;;;;;6217470;23;20461;-62
2022/01/22 07:18:39;;;;;;;3.90;1.10;;;1.80;99.90;;;;;;6217307;23;20230;-61
2022/01/22 07:21:14;;;;;;;3.47;1.00;;;1.80;99.90;;;;;;6217827;23;20133;-61
2022/01/22 07:26:29;;;;;;;5.47;1.45;;;1.70;99.90;;;;;;6161395;23;20149;-61
2022/01/22 07:28:55;;;;;;;2.50;1.60;;;1.70;99.90;;;;;;6217608;23;20153;-62
2022/01/22 07:31:23;;;;;;;3.55;1.33;;;1.70;99.90;;;;;;6217311;23;20222;-62
2022/01/22 07:33:49;;;;;;;3.67;0.95;;;1.60;99.90;;;;;;6217627;23;20199;-63
2022/01/22 07:36:14;;;;;;;2.97;1.10;;;1.60;99.90;;;;;;6217759;23;20141;-62
2022/01/22 07:38:40;;;;;;;6.53;1.50;;;1.60;99.90;;;;;;6217848;23;20258;-62
2022/01/22 07:41:07;;;;;;;3.47;1.25;;;1.60;99.90;;;;;;6217852;23;20155;-62
2022/01/22 07:43:36;;;;;;;2.10;1.27;;;1.60;99.90;;;;;;6217800;23;20487;-61
2022/01/22 07:46:02;;;;;;;3.25;2.13;;;1.50;99.90;;;;;;6217442;23;20551;-60
2022/01/22 07:48:27;;;;;;;6.18;1.45;;;1.50;99.90;;;;;;6217493;23;20573;-62
2022/01/22 07:50:53;;;;;;;4.88;1.45;;;1.50;99.90;;;;;;6217238;23;20170;-62
2022/01/22 07:53:18;;;;;;;5.88;1.77;;;1.50;99.90;;;;;;6217348;23;20181;-62
2022/01/22 07:55:44;;;;;;;3.92;1.42;;;1.50;99.90;;;;;;6217236;23;20145;-61
2022/01/22 07:58:11;;;;;;;1.83;1.13;;;1.50;99.90;;;;;;6217378;23;20561;-62
2022/01/22 08:00:37;;;;;;;4.13;1.63;;;1.50;99.90;;;;;;6218411;23;20228;-62
2022/01/22 08:03:03;;;;;;;4.47;1.42;;;1.50;99.90;;;;;;6218045;23;20444;-62
2022/01/22 08:05:29;;;;;;;3.95;1.33;;;1.60;99.90;;;;;;6217383;23;20137;-62
2022/01/22 08:07:55;;;;;;;4.90;1.38;;;1.60;99.90;;;;;;6217481;23;20167;-62
2022/01/22 08:10:20;;;;;;;3.42;1.42;;;1.70;99.90;;;;;;6216868;23;20155;-62
2022/01/22 08:12:49;;;;;;;2.80;1.50;;;1.70;99.90;;;;;;6217040;23;20148;-62
2022/01/22 08:15:16;;;;;;;5.95;1.77;;;1.70;99.90;;;;;;6217177;23;20232;-61
2022/01/22 08:17:42;;;;;;;4.15;1.30;;;1.80;99.90;;;;;;6217522;23;20168;-63
2022/01/22 08:20:09;;;;;;;3.85;1.52;;;1.80;99.90;;;;;;6217079;23;20215;-62
2022/01/22 08:22:34;;;;;;;3.30;1.40;;;1.90;99.90;;;;;;6216678;23;20152;-62
2022/01/22 08:25:01;;;;;;;3.03;1.63;;;1.90;99.90;;;;;;6216894;23;20141;-62
2022/01/22 08:29:52;;;;;;;4.18;1.40;;;2.00;99.90;;;;;;6217309;23;20164;-62
2022/01/22 08:37:27;;;;;;;6.65;1.67;;;2.10;99.90;;;;;;6194411;23;20164;-61
2022/01/22 08:39:53;;;;;;;3.58;1.80;;;2.10;99.90;;;;;;6216658;23;20141;-61
2022/01/22 08:42:20;;;;;;;3.40;1.55;;;2.20;99.90;;;;;;6216581;23;20213;-63
2022/01/22 08:44:46;;;;;;;4.97;1.48;;;2.20;99.90;;;;;;6216693;23;20141;-63
2022/01/22 08:47:13;;;;;;;4.80;2.00;;;2.30;99.90;;;;;;6216419;23;20175;-65
2022/01/22 08:49:38;;;;;;;5.13;1.60;;;2.30;99.90;;;;;;6216676;23;20149;-65
2022/01/22 08:52:11;;;;;;;4.57;1.63;;;2.30;99.90;;;;;;6216904;23;20525;-66
2022/01/22 08:54:36;;;;;;;2.95;1.83;;;2.30;99.90;;;;;;6216725;23;20137;-64
2022/01/22 08:57:02;;;;;;;7.20;1.70;;;2.30;99.90;;;;;;6216411;23;20523;-65
2022/01/22 08:59:27;;;;;;;4.65;1.55;;;2.30;99.90;;;;;;6216871;23;20149;-64
2022/01/22 09:01:53;;;;;;;4.22;1.75;;;2.30;99.90;;;;;;6216673;23;20141;-65
2022/01/22 09:04:18;;;;;;;4.78;1.70;;;2.40;99.90;;;;;;6216371;23;20219;-65
2022/01/22 09:06:44;;;;;;;2.58;1.60;;;2.40;99.90;;;;;;6216355;23;20171;-65
2022/01/22 09:09:11;;;;;;;4.70;2.05;;;2.50;99.90;;;;;;6216770;23;20148;-63
2022/01/22 09:11:38;;;;;;;4.05;1.40;;;2.60;99.90;;;;;;6216316;23;20236;-64
2022/01/22 09:14:06;;;;;;;3.65;1.70;;;2.60;99.90;;;;;;6216429;23;20148;-65
2022/01/22 09:16:32;;;;;;;3.40;2.00;;;2.70;99.90;;;;;;6216244;23;20562;-65
2022/01/22 09:19:05;;;;;;;5.65;1.92;;;2.80;99.90;;;;;;6216076;23;20189;-65
2022/01/22 09:21:31;;;;;;;4.30;1.80;;;2.90;99.90;;;;;;6216152;23;20548;-65
2022/01/22 09:23:57;;;;;;;4.03;1.63;;;3.00;99.90;;;;;;6216379;23;20137;-63
2022/01/22 09:26:22;;;;;;;7.00;2.80;;;3.10;99.90;;;;;;6216548;23;20145;-64
2022/01/22 09:28:48;;;;;;;5.35;2.13;;;3.20;99.90;;;;;;6216872;23;20163;-64
2022/01/22 09:31:14;;;;;;;6.55;2.15;;;3.20;99.90;;;;;;6219124;23;20145;-64
2022/01/22 09:33:40;;;;;;;4.57;1.88;;;3.30;99.90;;;;;;6217717;23;20216;-65
2022/01/22 09:36:06;;;;;;;4.75;1.83;;;3.30;99.90;;;;;;6216288;23;20455;-65
2022/01/22 09:38:31;;;;;;;6.50;1.70;;;3.30;99.90;;;;;;6216044;23;20188;-65
2022/01/22 09:40:57;;;;;;;6.82;1.70;;;3.30;99.90;;;;;;6216327;23;20546;-65
2022/01/22 09:43:23;;;;;;;6.93;2.30;;;3.30;99.90;;;;;;6216358;23;20137;-64
2022/01/22 09:45:50;;;;;;;3.35;1.70;;;3.30;99.90;;;;;;6217557;23;20145;-64
2022/01/22 09:48:15;;;;;;;5.20;1.63;;;3.30;99.90;;;;;;6218393;23;20144;-65
2022/01/22 09:50:41;;;;;;;3.45;1.70;;;3.30;99.90;;;;;;6218312;23;20487;-65
2022/01/22 09:53:07;;;;;;;3.53;2.05;;;3.30;99.90;;;;;;6218407;23;20252;-65
2022/01/22 09:55:33;;;;;;;3.42;1.88;;;3.30;99.90;;;;;;6218531;23;20164;-65
2022/01/22 09:57:58;;;;;;;6.35;2.10;;;3.30;99.90;;;;;;6218431;23;20200;-64
2022/01/22 10:00:25;;;;;;;4.43;1.80;;;3.30;99.90;;;;;;6218294;23;20414;-64
2022/01/22 10:02:53;;;;;;;4.57;1.88;;;3.30;99.90;;;;;;6218533;23;20149;-64
2022/01/22 10:05:29;;;;;;;8.25;2.00;;;3.30;99.90;;;;;;6218172;23;20141;-64
2022/01/22 10:08:28;;;;;;;4.22;1.90;;;3.30;99.90;;;;;;6218028;23;20614;-65
2022/01/22 10:10:55;;;;;;;5.95;1.98;;;3.20;99.90;;;;;;6192392;23;20628;-65
2022/01/22 10:13:38;;;;;;;6.50;2.40;;;3.30;99.90;;;;;;6218116;23;20509;-65
2022/01/22 10:16:10;;;;;;;10.20;2.25;;;3.20;99.90;;;;;;6218137;23;20438;-65
2022/01/22 10:18:35;;;;;;;7.97;2.40;;;3.20;99.90;;;;;;6217946;23;20275;-65
2022/01/22 10:21:07;;;;;;;4.93;2.30;;;3.20;99.90;;;;;;6217845;23;20179;-65
2022/01/22 10:23:39;;;;;;;5.13;1.85;;;3.20;99.90;;;;;;6218297;23;20465;-65
2022/01/22 10:26:05;;;;;;;4.55;2.20;;;3.20;99.90;;;;;;6218235;23;20217;-65
2022/01/22 10:28:46;;;;;;;5.93;2.25;;;3.30;99.90;;;;;;6192538;23;20159;-65
2022/01/22 10:31:24;;;;;;;5.82;2.45;;;3.30;99.90;;;;;;6218739;23;20526;-64
2022/01/22 10:34:09;;;;;;;5.00;1.98;;;3.30;99.90;;;;;;6218795;23;20413;-64
2022/01/22 10:36:35;;;;;;;6.00;2.33;;;3.30;99.90;;;;;;6218468;23;20212;-65
2022/01/22 10:39:06;;;;;;;6.32;1.70;;;3.30;99.90;;;;;;6199476;23;20171;-65
2022/01/22 10:41:40;;;;;;;3.97;1.73;;;3.30;99.90;;;;;;6223022;23;20144;-65
2022/01/22 10:44:09;;;;;;;7.15;2.03;;;3.30;99.90;;;;;;6221782;23;20141;-65
2022/01/22 10:46:47;;;;;;;6.15;2.33;;;3.30;99.90;;;;;;6219204;23;20156;-65
2022/01/22 10:49:16;;;;;;;6.43;1.73;;;3.40;99.90;;;;;;6219359;23;20133;-65
2022/01/22 10:51:56;;;;;;;3.10;1.70;;;3.40;99.90;;;;;;6219311;23;20142;-64
2022/01/22 10:54:23;;;;;;;7.35;1.70;;;3.40;99.90;;;;;;6219245;23;20132;-65
2022/01/22 10:56:50;;;;;;;4.43;1.92;;;3.50;99.90;;;;;;6218590;23;20191;-65
2022/01/22 10:59:17;;;;;;;4.78;1.73;;;3.50;99.90;;;;;;6219428;23;20141;-65
2022/01/22 11:02:01;;;;;;;4.63;1.83;;;3.60;99.90;;;;;;6223568;23;20161;-65
2022/01/22 11:04:39;;;;;;;5.40;1.60;;;3.60;99.90;;;;;;6219168;23;20129;-65
2022/01/22 11:07:06;;;;;;;7.20;1.48;;;3.60;99.90;;;;;;6218051;23;20137;-65
2022/01/22 11:09:34;;;;;;;4.07;1.58;;;3.60;99.90;;;;;;6191101;23;20157;-65
2022/01/22 11:12:02;;;;;;;3.75;1.75;;;3.70;99.90;;;;;;6217750;23;20231;-65
2022/01/22 11:14:29;;;;;;;4.10;1.90;;;3.70;99.90;;;;;;6191295;23;20153;-65
2022/01/22 11:16:55;;;;;;;4.18;2.15;;;3.80;99.90;;;;;;6217296;23;20600;-65
2022/01/22 11:19:23;;;;;;;5.38;2.58;;;3.80;99.90;;;;;;6217364;23;20187;-65
2022/01/22 11:21:53;;;;;;;5.85;2.45;;;3.80;99.90;;;;;;6217399;23;20152;-65
2022/01/22 11:24:21;;;;;;;4.20;2.42;;;3.80;99.90;;;;;;6217172;23;20221;-66
2022/01/22 11:26:57;;;;;;;5.63;2.45;;;3.90;99.90;;;;;;6217467;23;20180;-65
2022/01/22 11:29:29;;;;;;;5.40;2.10;;;3.90;99.90;;;;;;6217546;23;20485;-64
2022/01/22 11:31:56;;;;;;;5.82;2.05;;;4.00;99.90;;;;;;6217580;23;20224;-65
2022/01/22 11:34:25;;;;;;;3.40;1.85;;;4.00;99.90;;;;;;6190949;23;20184;-64
2022/01/22 11:37:02;;;;;;;2.35;1.60;;;4.10;99.90;;;;;;6217304;23;20188;-66
2022/01/22 11:39:28;;;;;;;4.40;1.40;;;4.10;99.90;;;;;;6190925;23;20160;-65
2022/01/22 11:41:57;;;;;;;3.80;1.50;;;4.20;99.90;;;;;;6217221;23;20148;-65
2022/01/22 11:44:40;;;;;;;3.33;1.35;;;4.30;99.90;;;;;;6191261;23;20207;-64
2022/01/22 11:47:14;;;;;;;4.22;1.60;;;4.30;99.90;;;;;;6217469;23;20140;-66
2022/01/22 11:49:41;;;;;;;4.65;1.50;;;4.30;99.90;;;;;;6217049;23;20193;-64
2022/01/22 11:52:12;;;;;;;4.55;1.52;;;4.40;99.90;;;;;;6217164;23;20507;-65
2022/01/22 11:55:01;;;;;;;6.18;1.70;;;4.40;99.90;;;;;;6217590;23;20153;-64
2022/01/22 11:57:29;;;;;;;3.75;1.27;;;4.40;99.90;;;;;;6217000;23;20157;-64
2022/01/22 12:00:22;;;;;;;3.63;1.30;;;4.50;99.90;;;;;;6217318;23;20179;-64
2022/01/22 12:03:03;;;;;;;1.95;1.00;;;4.50;99.90;;;;;;6217219;23;20137;-64
2022/01/22 12:05:28;;;;;;;2.88;1.40;;;4.60;99.90;;;;;;6217290;23;20140;-64
2022/01/22 12:08:01;;;;;;;2.65;0.93;;;4.60;99.90;;;;;;6190833;23;20240;-65
2022/01/22 12:10:40;;;;;;;3.47;1.00;;;4.60;99.90;;;;;;6217041;23;20155;-65
2022/01/22 12:16:11;;;;;;;4.05;1.02;;;4.70;99.90;;;;;;6194870;23;20140;-64
2022/01/22 12:18:42;;;;;;;3.25;1.27;;;4.80;99.90;;;;;;6190286;23;20487;-64
2022/01/22 12:23:54;;;;;;;2.75;1.10;;;4.90;99.90;;;;;;6217040;23;20594;-65
2022/01/22 12:26:37;;;;;;;1.52;0.93;;;4.90;99.90;;;;;;6217448;23;20156;-65
2022/01/22 12:29:27;;;;;;;2.13;1.10;;;4.90;99.90;;;;;;6216907;23;20156;-65
2022/01/22 12:32:09;;;;;;;2.22;1.25;;;4.90;99.90;;;;;;6217104;23;20476;-64
2022/01/22 12:34:51;;;;;;;7.07;1.80;;;5.00;99.90;;;;;;6216656;23;20141;-65
2022/01/22 12:37:20;;;;;;;3.45;1.30;;;5.10;99.90;;;;;;6216970;23;20172;-65
2022/01/22 12:39:50;;;;;;;4.10;1.35;;;5.20;99.90;;;;;;6190235;23;20199;-65
2022/01/22 12:42:27;;;;;;;2.53;1.20;;;5.30;99.90;;;;;;6216910;23;20160;-65
2022/01/22 12:45:03;;;;;;;3.85;1.50;;;5.40;99.90;;;;;;6216779;23;20133;-65
2022/01/22 12:47:28;;;;;;;1.77;1.25;;;5.40;99.90;;;;;;6216555;23;20145;-65
2022/01/22 12:50:06;;;;;;;2.95;1.40;;;5.40;99.90;;;;;;6216360;23;20446;-65
2022/01/22 12:52:33;;;;;;;3.38;1.02;;;5.40;99.90;;;;;;6216381;23;20168;-65
2022/01/22 12:55:00;;;;;;;2.38;1.27;;;5.40;99.90;;;;;;6216844;23;20145;-65
2022/01/22 12:57:27;;;;;;;2.53;1.05;;;5.50;99.90;;;;;;6216506;23;20188;-65
2022/01/22 13:00:09;;;;;;;3.45;1.58;;;5.60;99.90;;;;;;6216318;23;20148;-65
2022/01/22 13:02:43;;;;;;;3.45;1.35;;;5.60;99.90;;;;;;6222181;23;20139;-65
2022/01/22 13:05:10;;;;;;;3.60;1.30;;;5.70;99.90;;;;;;6229249;23;20426;-65
2022/01/22 13:07:41;;;;;;;2.08;1.17;;;5.70;99.90;;;;;;6216908;23;20157;-65
2022/01/22 13:10:08;;;;;;;4.00;1.15;;;5.80;99.90;;;;;;6216694;23;20153;-65
2022/01/22 13:12:36;;;;;;;3.47;1.33;;;5.80;99.90;;;;;;6216917;23;20149;-65
2022/01/22 13:15:02;;;;;;;2.60;1.00;;;5.90;99.90;;;;;;6216747;23;20168;-66
2022/01/22 13:17:32;;;;;;;1.98;1.30;;;5.90;99.90;;;;;;6216558;23;20176;-65
2022/01/22 13:19:59;;;;;;;3.08;1.35;;;5.90;99.90;;;;;;6215857;23;20341;-66
2022/01/22 13:22:37;;;;;;;3.97;1.75;;;5.90;99.90;;;;;;6216467;23;20141;-65
2022/01/22 13:25:10;;;;;;;5.28;1.50;;;5.90;99.90;;;;;;6216338;23;20262;-65
2022/01/22 13:27:38;;;;;;;5.65;1.40;;;6.00;99.90;;;;;;6216541;23;20566;-65
2022/01/22 13:30:06;;;;;;;3.35;1.70;;;5.90;99.90;;;;;;6216143;23;20145;-65
2022/01/22 13:32:54;;;;;;;4.05;1.63;;;6.00;99.90;;;;;;6190445;23;20432;-65
2022/01/22 13:38:54;;;;;;;2.72;1.50;;;6.00;99.90;;;;;;6216506;23;20223;-65
2022/01/22 13:49:28;;;;;;;3.47;1.25;;;6.00;99.90;;;;;;6216162;23;20209;-65
2022/01/22 13:52:03;;;;;;;4.00;1.33;;;6.00;99.90;;;;;;6216118;23;20145;-65
2022/01/22 13:54:30;;;;;;;2.90;1.35;;;6.00;99.90;;;;;;6216498;23;20132;-65
2022/01/22 13:56:59;;;;;;;2.90;1.35;;;6.00;99.90;;;;;;6216471;23;20243;-65
2022/01/22 13:59:29;;;;;;;4.38;1.63;;;6.00;99.90;;;;;;6216240;23;20159;-66
2022/01/22 14:02:11;;;;;;;4.03;1.50;;;6.00;99.90;;;;;;6190400;23;20501;-66
2022/01/22 14:04:38;;;;;;;2.00;1.02;;;6.00;99.90;;;;;;6216544;23;20121;-66
2022/01/22 14:07:14;;;;;;;1.40;0.90;;;5.90;99.90;;;;;;6216578;23;20165;-65
2022/01/22 14:10:00;;;;;;;3.38;1.40;;;5.90;99.90;;;;;;6216215;23;20145;-65
2022/01/22 14:12:59;;;;;;;1.83;1.17;;;5.90;99.90;;;;;;6216422;23;20134;-65
2022/01/22 14:15:28;;;;;;;3.20;1.20;;;5.80;99.90;;;;;;6216768;23;20145;-65
2022/01/22 14:18:15;;;;;;;2.85;1.30;;;5.80;99.90;;;;;;6217098;23;20169;-65
2022/01/22 14:20:52;;;;;;;2.17;1.33;;;5.70;99.90;;;;;;6217132;23;20145;-65
2022/01/22 14:23:30;;;;;;;3.05;1.27;;;5.70;99.90;;;;;;6216871;23;20481;-65
2022/01/22 14:26:03;;;;;;;1.95;1.30;;;5.70;99.90;;;;;;6216518;23;20130;-66
2022/01/22 14:28:57;;;;;;;3.28;1.30;;;5.70;99.90;;;;;;6216881;23;20134;-66
2022/01/22 14:31:28;;;;;;;3.45;1.48;;;5.70;99.90;;;;;;6217378;23;20137;-66
2022/01/22 14:34:05;;;;;;;3.08;1.42;;;5.70;99.90;;;;;;6218786;23;20152;-65
2022/01/22 14:36:38;;;;;;;3.78;1.20;;;5.70;99.90;;;;;;6218216;23;20129;-66
2022/01/22 14:44:39;;;;;;;5.03;1.90;;;5.60;99.90;;;;;;6219326;23;20144;-64
2022/01/22 14:47:24;;;;;;;4.97;1.70;;;5.60;99.90;;;;;;6218658;23;20208;-65
2022/01/22 14:49:55;;;;;;;4.20;1.60;;;5.60;99.90;;;;;;6218503;23;20137;-66
2022/01/22 14:52:25;;;;;;;2.53;1.70;;;5.60;99.90;;;;;;6218163;23;20825;-66
2022/01/22 14:54:51;;;;;;;2.92;1.67;;;5.50;99.90;;;;;;6217871;23;20564;-66
2022/01/22 14:57:22;;;;;;;4.53;2.00;;;5.50;99.90;;;;;;6217384;23;20169;-65
2022/01/22 14:59:48;;;;;;;4.43;1.90;;;5.50;99.90;;;;;;6218306;23;20152;-65